createdAt,value
2022-08-28T00:02:08.947Z,5.70
2022-08-28T00:04:36.994Z,6.20
2022-08-28T00:07:05.428Z,6.30
2022-08-28T00:09:33.672Z,6.80
2022-08-28T00:12:02.455Z,6.80
2022-08-28T00:14:30.503Z,7.90
2022-08-28T00:16:58.904Z,7.70
2022-08-28T00:19:27.117Z,4.70
2022-08-28T00:21:55.355Z,9.20
2022-08-28T00:24:23.677Z,7.10
2022-08-28T00:27:10.434Z,4.50
2022-08-28T00:29:38.606Z,5.70
2022-08-28T00:32:06.985Z,6.00
2022-08-28T00:34:35.411Z,5.70
2022-08-28T00:37:03.643Z,5.70
2022-08-28T00:39:32.341Z,5.10
2022-08-28T00:42:00.566Z,8.00
2022-08-28T00:44:29.202Z,9.30
2022-08-28T00:46:59.524Z,8.50
2022-08-28T00:49:31.535Z,8.00
2022-08-28T00:52:08.240Z,7.00
2022-08-28T00:54:56.805Z,5.30
2022-08-28T00:57:27.833Z,7.30
2022-08-28T00:59:56.129Z,7.00
2022-08-28T01:02:24.774Z,4.90
2022-08-28T01:04:52.997Z,6.40
2022-08-28T01:07:23.372Z,9.20
2022-08-28T01:09:54.945Z,5.40
2022-08-28T01:12:26.758Z,7.80
2022-08-28T01:15:00.252Z,4.50
2022-08-28T01:17:31.591Z,9.40
2022-08-28T01:20:06.395Z,6.60
2022-08-28T01:22:51.137Z,7.10
2022-08-28T01:25:23.609Z,7.00
2022-08-28T01:27:51.830Z,5.40
2022-08-28T01:30:22.413Z,6.00
2022-08-28T01:32:54.550Z,7.00
2022-08-28T01:35:31.815Z,6.00
2022-08-28T01:38:00.615Z,8.50
2022-08-28T01:40:33.378Z,7.60
2022-08-28T01:43:12.790Z,6.60
2022-08-28T01:45:44.726Z,7.10
2022-08-28T01:48:15.931Z,9.10
2022-08-28T01:50:44.622Z,7.60
2022-08-28T01:53:15.807Z,6.00
2022-08-28T01:55:44.773Z,7.20
2022-08-28T01:58:13.533Z,6.80
2022-08-28T02:00:42.217Z,5.50
2022-08-28T02:03:11.334Z,8.50
2022-08-28T02:05:40.247Z,6.70
2022-08-28T02:08:08.978Z,6.60
2022-08-28T02:10:40.075Z,5.50
2022-08-28T02:13:09.698Z,5.70
2022-08-28T02:15:39.864Z,4.80
2022-08-28T02:18:08.736Z,8.40
2022-08-28T02:20:37.103Z,6.60
2022-08-28T02:23:06.368Z,6.70
2022-08-28T02:25:34.909Z,7.20
2022-08-28T02:28:04.248Z,7.00
2022-08-28T02:30:32.329Z,9.00
2022-08-28T02:33:00.597Z,9.10
2022-08-28T02:35:28.614Z,9.40
2022-08-28T02:37:57.120Z,5.90
2022-08-28T02:40:29.828Z,7.30
2022-08-28T02:42:57.998Z,5.20
2022-08-28T02:45:26.459Z,7.90
2022-08-28T02:47:55.058Z,6.00
2022-08-28T02:50:24.222Z,7.70
2022-08-28T02:52:52.432Z,7.90
2022-08-28T02:55:21.071Z,6.00
2022-08-28T02:57:49.341Z,8.80
2022-08-28T03:00:21.826Z,5.70
2022-08-28T03:02:51.106Z,7.00
2022-08-28T03:05:23.037Z,6.60
2022-08-28T03:07:53.605Z,8.50
2022-08-28T03:10:22.464Z,4.60
2022-08-28T03:12:52.043Z,5.40
2022-08-28T03:15:20.623Z,5.20
2022-08-28T03:17:48.897Z,6.20
2022-08-28T03:20:19.327Z,4.80
2022-08-28T03:23:06.439Z,6.80
2022-08-28T03:25:34.451Z,4.70
2022-08-28T03:28:02.821Z,8.70
2022-08-28T03:30:30.859Z,5.60
2022-08-28T03:32:59.033Z,8.40
2022-08-28T03:35:27.351Z,7.90
2022-08-28T03:37:55.420Z,6.90
2022-08-28T03:40:23.623Z,7.70
2022-08-28T03:42:53.602Z,9.20
2022-08-28T03:45:22.594Z,7.60
2022-08-28T03:47:51.244Z,6.60
2022-08-28T03:50:19.692Z,9.60
2022-08-28T03:52:48.017Z,6.50
2022-08-28T03:55:19.142Z,6.50
2022-08-28T03:57:47.316Z,12.20
2022-08-28T04:00:16.546Z,10.30
2022-08-28T04:02:46.315Z,6.80
2022-08-28T04:05:14.502Z,9.00
2022-08-28T04:07:42.489Z,7.70
2022-08-28T04:10:12.285Z,9.70
2022-08-28T04:12:40.376Z,6.10
2022-08-28T04:15:09.095Z,6.90
2022-08-28T04:17:39.479Z,8.60
2022-08-28T04:20:09.343Z,7.00
2022-08-28T04:22:37.556Z,7.90
2022-08-28T04:25:07.214Z,9.30
2022-08-28T04:27:35.712Z,14.40
2022-08-28T04:30:04.765Z,11.90
2022-08-28T04:32:35.928Z,8.60
2022-08-28T04:35:06.870Z,9.80
2022-08-28T04:37:35.076Z,8.00
2022-08-28T04:40:09.079Z,9.60
2022-08-28T04:42:38.804Z,13.10
2022-08-28T04:45:08.570Z,8.40
2022-08-28T04:47:38.211Z,8.90
2022-08-28T04:50:07.477Z,6.60
2022-08-28T04:52:35.583Z,5.10
2022-08-28T04:55:05.040Z,7.10
2022-08-28T04:57:36.219Z,9.90
2022-08-28T05:00:07.132Z,8.00
2022-08-28T05:02:35.380Z,8.80
2022-08-28T05:05:04.400Z,9.70
2022-08-28T05:07:33.738Z,5.60
2022-08-28T05:10:01.820Z,6.70
2022-08-28T05:12:30.079Z,8.10
2022-08-28T05:14:58.138Z,7.40
2022-08-28T05:17:26.784Z,8.40
2022-08-28T05:20:00.276Z,9.20
2022-08-28T05:22:30.549Z,7.30
2022-08-28T05:25:01.189Z,5.50
2022-08-28T05:27:29.766Z,6.10
2022-08-28T05:30:01.696Z,5.80
2022-08-28T05:32:30.248Z,7.60
2022-08-28T05:34:58.378Z,6.60
2022-08-28T05:37:27.063Z,9.00
2022-08-28T05:39:55.120Z,6.00
2022-08-28T05:42:23.332Z,10.90
2022-08-28T05:44:59.909Z,7.10
2022-08-28T05:47:28.356Z,8.80
2022-08-28T05:49:56.452Z,6.50
2022-08-28T05:52:25.012Z,6.50
2022-08-28T05:54:53.264Z,8.70
2022-08-28T05:57:21.391Z,5.40
2022-08-28T05:59:50.409Z,6.30
2022-08-28T06:02:18.476Z,7.80
2022-08-28T06:04:48.020Z,5.10
2022-08-28T06:07:16.501Z,6.30
2022-08-28T06:09:44.515Z,6.50
2022-08-28T06:12:12.633Z,8.50
2022-08-28T06:14:42.508Z,5.40
2022-08-28T06:17:13.088Z,10.60
2022-08-28T06:19:41.747Z,6.30
2022-08-28T06:22:12.327Z,6.80
2022-08-28T06:24:41.249Z,7.30
2022-08-28T06:27:09.294Z,8.00
2022-08-28T06:29:37.461Z,6.20
2022-08-28T06:32:06.235Z,9.20
2022-08-28T06:34:34.447Z,5.80
2022-08-28T06:37:02.776Z,6.90
2022-08-28T06:39:30.888Z,8.40
2022-08-28T06:41:58.917Z,8.40
2022-08-28T06:44:27.591Z,5.40
2022-08-28T06:46:55.869Z,7.20
2022-08-28T06:49:24.042Z,7.70
2022-08-28T06:51:52.214Z,10.10
2022-08-28T06:54:23.249Z,6.80
2022-08-28T06:56:52.603Z,7.80
2022-08-28T06:59:20.917Z,9.60
2022-08-28T07:01:49.417Z,6.30
2022-08-28T07:04:17.538Z,7.70
2022-08-28T07:06:47.010Z,8.90
2022-08-28T07:09:16.798Z,5.70
2022-08-28T07:11:49.203Z,10.30
2022-08-28T07:14:17.488Z,7.30
2022-08-28T07:16:46.176Z,10.20
2022-08-28T07:19:14.548Z,7.60
2022-08-28T07:21:45.238Z,7.00
2022-08-28T07:24:15.150Z,7.90
2022-08-28T07:26:45.371Z,8.90
2022-08-28T07:29:14.672Z,7.20
2022-08-28T07:31:46.268Z,7.70
2022-08-28T07:34:16.140Z,7.90
2022-08-28T07:36:45.043Z,7.50
2022-08-28T07:39:15.778Z,10.90
2022-08-28T07:41:44.753Z,6.40
2022-08-28T07:44:34.025Z,10.30
2022-08-28T07:47:05.942Z,10.80
2022-08-28T07:49:35.690Z,12.10
2022-08-28T07:52:06.628Z,10.80
2022-08-28T07:54:36.524Z,9.50
2022-08-28T07:57:05.942Z,10.80
2022-08-28T07:59:37.008Z,8.00
2022-08-28T08:02:06.486Z,7.80
2022-08-28T08:04:34.915Z,7.40
2022-08-28T08:07:04.487Z,7.10
2022-08-28T08:09:37.558Z,7.80
2022-08-28T08:12:06.662Z,6.40
2022-08-28T08:14:34.811Z,7.70
2022-08-28T08:17:04.760Z,10.80
2022-08-28T08:19:36.363Z,9.20
2022-08-28T08:22:04.569Z,7.40
2022-08-28T08:24:32.892Z,8.70
2022-08-28T08:27:02.389Z,8.00
2022-08-28T08:29:35.987Z,9.80
2022-08-28T08:32:10.603Z,6.50
2022-08-28T08:34:43.556Z,9.40
2022-08-28T08:37:13.521Z,8.00
2022-08-28T08:39:43.292Z,9.20
2022-08-28T08:42:33.480Z,10.30
2022-08-28T08:45:06.045Z,9.10
2022-08-28T08:47:51.600Z,8.70
2022-08-28T08:50:27.821Z,9.50
2022-08-28T08:53:13.168Z,7.40
2022-08-28T08:55:47.961Z,8.20
2022-08-28T08:58:28.759Z,8.40
2022-08-28T09:01:09.982Z,7.40
2022-08-28T09:03:59.916Z,9.00
2022-08-28T09:07:08.030Z,7.90
2022-08-28T09:09:52.481Z,8.90
2022-08-28T09:12:26.295Z,8.80
2022-08-28T09:15:13.351Z,7.00
2022-08-28T09:17:43.174Z,10.70
2022-08-28T09:20:15.050Z,7.50
2022-08-28T09:22:45.596Z,7.70
2022-08-28T09:25:52.263Z,9.00
2022-08-28T09:28:27.245Z,9.30
2022-08-28T09:30:59.976Z,6.60
2022-08-28T09:33:49.670Z,8.30
2022-08-28T09:36:23.983Z,8.80
2022-08-28T09:39:31.481Z,5.80
2022-08-28T09:42:33.217Z,10.00
2022-08-28T09:45:09.508Z,8.60
2022-08-28T09:47:46.255Z,7.80
2022-08-28T09:50:15.372Z,7.30
2022-08-28T09:52:43.400Z,10.10
2022-08-28T09:55:17.860Z,8.30
2022-08-28T09:57:47.465Z,7.30
2022-08-28T10:00:15.877Z,9.60
2022-08-28T10:02:48.821Z,7.30
2022-08-28T10:05:28.722Z,10.40
2022-08-28T10:08:08.315Z,9.90
2022-08-28T10:10:51.643Z,5.60
2022-08-28T10:13:31.846Z,7.20
2022-08-28T10:16:18.422Z,8.10
2022-08-28T10:19:10.643Z,8.00
2022-08-28T10:21:50.808Z,6.70
2022-08-28T10:24:47.023Z,7.70
2022-08-28T10:27:24.617Z,9.00
2022-08-28T10:30:25.249Z,9.70
2022-08-28T10:33:28.194Z,6.70
2022-08-28T10:36:07.104Z,5.30
2022-08-28T10:38:42.141Z,8.20
2022-08-28T10:41:29.017Z,9.00
2022-08-28T10:44:02.094Z,8.90
2022-08-28T10:46:37.129Z,7.80
2022-08-28T10:49:26.656Z,8.40
2022-08-28T10:52:04.632Z,8.50
2022-08-28T10:55:02.165Z,6.80
2022-08-28T10:57:37.278Z,9.00
2022-08-28T11:00:12.601Z,8.00
2022-08-28T11:03:01.475Z,7.80
2022-08-28T11:05:38.479Z,7.50
2022-08-28T11:08:12.073Z,7.20
2022-08-28T11:10:52.445Z,6.20
2022-08-28T11:13:55.119Z,6.90
2022-08-28T11:16:35.517Z,6.50
2022-08-28T11:19:31.301Z,8.00
2022-08-28T11:22:15.038Z,4.80
2022-08-28T11:24:51.400Z,5.40
2022-08-28T11:27:35.516Z,7.30
2022-08-28T11:30:26.692Z,8.20
2022-08-28T11:32:54.830Z,5.40
2022-08-28T11:35:48.589Z,5.00
2022-08-28T11:38:41.759Z,13.20
2022-08-28T11:41:12.289Z,7.30
2022-08-28T11:43:43.908Z,7.80
2022-08-28T11:46:29.656Z,6.20
2022-08-28T11:49:01.235Z,5.40
2022-08-28T11:51:46.045Z,8.30
2022-08-28T11:54:29.474Z,4.60
2022-08-28T11:57:08.424Z,7.30
2022-08-28T12:00:04.121Z,9.10
2022-08-28T12:02:41.835Z,9.20
2022-08-28T12:05:12.649Z,7.70
2022-08-28T12:07:46.363Z,8.40
2022-08-28T12:10:20.449Z,9.20
2022-08-28T12:12:48.445Z,8.40
2022-08-28T12:15:28.690Z,6.50
2022-08-28T12:18:07.610Z,6.30
2022-08-28T12:20:39.264Z,7.20
2022-08-28T12:23:45.048Z,5.60
2022-08-28T12:26:13.241Z,7.30
2022-08-28T12:29:06.962Z,10.00
2022-08-28T12:32:16.713Z,5.80
2022-08-28T12:35:10.897Z,5.10
2022-08-28T12:37:54.072Z,5.90
2022-08-28T12:40:43.672Z,6.50
2022-08-28T12:43:15.341Z,7.60
2022-08-28T12:45:52.684Z,8.40
2022-08-28T12:48:23.880Z,8.20
2022-08-28T12:51:08.006Z,10.70
2022-08-28T12:53:44.267Z,8.30
2022-08-28T12:56:15.029Z,9.30
2022-08-28T12:58:44.340Z,10.80
2022-08-28T13:01:37.086Z,9.10
2022-08-28T13:04:25.521Z,11.50
2022-08-28T13:07:03.362Z,11.80
2022-08-28T13:09:31.589Z,9.50
2022-08-28T13:11:59.705Z,9.20
2022-08-28T13:14:37.767Z,12.70
2022-08-28T13:17:06.040Z,12.40
2022-08-28T13:19:35.990Z,11.40
2022-08-28T13:22:25.769Z,12.30
2022-08-28T13:24:59.879Z,11.80
2022-08-28T13:27:28.848Z,10.90
2022-08-28T13:29:59.712Z,10.90
2022-08-28T13:32:33.302Z,12.10
2022-08-28T13:35:23.300Z,10.80
2022-08-28T13:38:16.598Z,11.10
2022-08-28T13:41:03.107Z,13.30
2022-08-28T13:43:45.165Z,12.80
2022-08-28T13:46:14.027Z,11.30
2022-08-28T13:48:42.168Z,12.90
2022-08-28T13:51:14.207Z,13.60
2022-08-28T13:53:49.722Z,14.20
2022-08-28T13:56:18.070Z,14.20
2022-08-28T13:58:50.004Z,14.20
2022-08-28T14:01:46.009Z,15.00
2022-08-28T14:04:14.227Z,16.60
2022-08-28T14:06:44.197Z,15.40
2022-08-28T14:09:17.601Z,19.70
2022-08-28T14:11:47.573Z,16.80
2022-08-28T14:14:16.616Z,14.60
2022-08-28T14:16:45.819Z,13.40
2022-08-28T14:19:13.895Z,15.10
2022-08-28T14:21:42.230Z,13.20
2022-08-28T14:24:10.771Z,12.60
2022-08-28T14:26:39.251Z,13.00
2022-08-28T14:29:10.093Z,16.50
2022-08-28T14:31:41.210Z,11.70
2022-08-28T14:34:15.841Z,12.50
2022-08-28T14:36:43.979Z,12.70
2022-08-28T14:39:13.799Z,14.00
2022-08-28T14:41:46.359Z,12.00
2022-08-28T14:44:15.554Z,11.30
2022-08-28T14:46:46.958Z,12.10
2022-08-28T14:49:17.185Z,12.60
2022-08-28T14:51:46.986Z,11.60
2022-08-28T14:54:18.746Z,12.40
2022-08-28T14:56:47.695Z,14.90
2022-08-28T14:59:23.986Z,12.70
2022-08-28T15:01:55.723Z,13.40
2022-08-28T15:04:26.309Z,13.90
2022-08-28T15:06:59.920Z,13.40
2022-08-28T15:09:28.129Z,13.70
2022-08-28T15:11:56.537Z,13.10
2022-08-28T15:14:24.625Z,12.40
2022-08-28T15:16:53.758Z,14.30
2022-08-28T15:19:23.464Z,13.10
2022-08-28T15:21:54.554Z,12.60
2022-08-28T15:24:25.966Z,12.90
2022-08-28T15:26:54.795Z,13.50
2022-08-28T15:29:23.264Z,13.70
2022-08-28T15:31:53.018Z,12.80
2022-08-28T15:34:25.205Z,12.30
2022-08-28T15:36:56.010Z,12.60
2022-08-28T15:39:45.494Z,12.60
2022-08-28T15:42:14.514Z,12.70
2022-08-28T15:44:42.884Z,13.90
2022-08-28T15:47:13.879Z,14.70
2022-08-28T15:49:46.859Z,13.00
2022-08-28T15:52:19.441Z,12.60
2022-08-28T15:54:48.961Z,12.30
2022-08-28T15:57:17.948Z,12.80
2022-08-28T15:59:49.945Z,11.70
2022-08-28T16:02:22.641Z,11.40
2022-08-28T16:04:51.583Z,11.50
2022-08-28T16:07:21.405Z,11.30
2022-08-28T16:09:49.778Z,11.30
2022-08-28T16:12:18.658Z,11.30
2022-08-28T16:14:47.109Z,10.20
2022-08-28T16:17:15.318Z,10.30
2022-08-28T16:19:43.765Z,9.20
2022-08-28T16:22:15.991Z,9.80
2022-08-28T16:24:45.355Z,8.60
2022-08-28T16:27:15.688Z,8.90
2022-08-28T16:29:45.316Z,10.10
2022-08-28T16:32:13.533Z,9.40
2022-08-28T16:34:44.910Z,8.80
2022-08-28T16:37:19.424Z,8.80
2022-08-28T16:39:53.975Z,8.90
2022-08-28T16:42:23.382Z,8.30
2022-08-28T16:44:56.474Z,8.70
2022-08-28T16:47:24.894Z,9.20
2022-08-28T16:50:13.190Z,8.60
2022-08-28T16:52:41.603Z,8.80
2022-08-28T16:55:10.995Z,8.60
2022-08-28T16:57:40.069Z,8.60
2022-08-28T17:00:12.428Z,8.80
2022-08-28T17:02:42.515Z,9.10
2022-08-28T17:05:14.278Z,8.40
2022-08-28T17:07:43.515Z,9.20
2022-08-28T17:10:14.458Z,9.20
2022-08-28T17:12:42.619Z,8.90
2022-08-28T17:15:11.417Z,9.30
2022-08-28T17:17:40.387Z,9.50
2022-08-28T17:20:31.804Z,9.40
2022-08-28T17:23:00.238Z,9.80
2022-08-28T17:25:28.549Z,9.50
2022-08-28T17:27:56.787Z,10.00
2022-08-28T17:30:24.962Z,9.80
2022-08-28T17:32:53.508Z,9.80
2022-08-28T17:35:22.320Z,11.10
2022-08-28T17:37:53.856Z,9.30
2022-08-28T17:40:22.843Z,10.40
2022-08-28T17:42:53.661Z,10.50
2022-08-28T17:45:21.884Z,9.50
2022-08-28T17:47:51.191Z,10.20
2022-08-28T17:50:19.737Z,10.90
2022-08-28T17:52:48.114Z,9.60
2022-08-28T17:55:17.615Z,11.10
2022-08-28T17:57:45.615Z,9.40
2022-08-28T18:00:17.061Z,9.70
2022-08-28T18:02:45.472Z,8.80
2022-08-28T18:05:14.848Z,10.20
2022-08-28T18:07:42.832Z,9.30
2022-08-28T18:10:12.013Z,9.80
2022-08-28T18:12:41.149Z,9.90
2022-08-28T18:15:12.276Z,9.60
2022-08-28T18:17:41.391Z,10.00
2022-08-28T18:20:11.984Z,9.80
2022-08-28T18:22:40.147Z,9.20
2022-08-28T18:25:08.861Z,8.80
2022-08-28T18:27:36.905Z,9.70
2022-08-28T18:30:05.709Z,9.10
2022-08-28T18:32:33.862Z,9.40
2022-08-28T18:35:01.981Z,9.60
2022-08-28T18:37:30.010Z,9.30
2022-08-28T18:39:58.198Z,8.00
2022-08-28T18:42:26.336Z,9.00
2022-08-28T18:44:54.517Z,8.50
2022-08-28T18:47:22.691Z,8.20
2022-08-28T18:49:50.759Z,8.50
2022-08-28T18:52:19.091Z,9.50
2022-08-28T18:54:49.114Z,8.30
2022-08-28T18:57:18.915Z,8.10
2022-08-28T18:59:47.003Z,8.50
2022-08-28T19:02:16.991Z,9.80
2022-08-28T19:04:45.433Z,8.00
2022-08-28T19:07:13.701Z,7.70
2022-08-28T19:09:41.821Z,8.00
2022-08-28T19:12:09.948Z,7.20
2022-08-28T19:14:38.121Z,6.90
2022-08-28T19:17:06.137Z,6.30
2022-08-28T19:19:34.189Z,6.70
2022-08-28T19:22:02.874Z,6.10
2022-08-28T19:24:33.785Z,6.20
2022-08-28T19:27:01.955Z,7.20
2022-08-28T19:29:30.226Z,6.20
2022-08-28T19:31:58.406Z,6.00
2022-08-28T19:34:26.488Z,6.30
2022-08-28T19:36:54.650Z,6.10
2022-08-28T19:39:22.614Z,6.20
2022-08-28T19:41:50.688Z,6.10
2022-08-28T19:44:18.961Z,6.30
2022-08-28T19:46:47.601Z,6.50
2022-08-28T19:49:15.757Z,5.70
2022-08-28T19:51:43.885Z,6.20
2022-08-28T19:54:14.416Z,5.70
2022-08-28T19:56:42.506Z,5.90
2022-08-28T19:59:10.871Z,5.80
2022-08-28T20:01:43.749Z,6.00
2022-08-28T20:04:17.772Z,5.10
2022-08-28T20:06:46.297Z,5.50
2022-08-28T20:09:17.413Z,4.90
2022-08-28T20:11:47.078Z,5.10
2022-08-28T20:14:17.104Z,4.60
2022-08-28T20:16:48.859Z,5.20
2022-08-28T20:19:19.073Z,4.90
2022-08-28T20:21:50.231Z,5.70
2022-08-28T20:24:24.248Z,4.80
2022-08-28T20:26:53.438Z,4.50
2022-08-28T20:29:24.291Z,4.60
2022-08-28T20:31:52.984Z,4.70
2022-08-28T20:34:21.600Z,5.60
2022-08-28T20:36:50.171Z,4.60
2022-08-28T20:39:19.738Z,4.40
2022-08-28T20:41:49.565Z,4.60
2022-08-28T20:44:20.202Z,5.10
2022-08-28T20:46:51.155Z,4.90
2022-08-28T20:49:24.115Z,4.70
2022-08-28T20:52:01.332Z,4.80
2022-08-28T20:54:32.299Z,4.70
2022-08-28T20:57:03.763Z,4.50
2022-08-28T20:59:39.377Z,4.40
2022-08-28T21:02:12.645Z,4.80
2022-08-28T21:04:41.946Z,4.70
2022-08-28T21:07:11.546Z,4.80
2022-08-28T21:10:03.809Z,4.50
2022-08-28T21:12:28.493Z,4.30
2022-08-28T21:14:56.541Z,4.80
2022-08-28T21:17:29.399Z,4.50
2022-08-28T21:20:04.234Z,4.90
2022-08-28T21:22:35.127Z,4.70
2022-08-28T21:25:06.410Z,4.40
2022-08-28T21:27:35.495Z,5.00
2022-08-28T21:30:06.068Z,5.20
2022-08-28T21:32:35.111Z,4.80
2022-08-28T21:35:06.543Z,6.00
2022-08-28T21:37:35.044Z,4.90
2022-08-28T21:40:04.996Z,5.70
2022-08-28T21:42:32.989Z,5.70
2022-08-28T21:45:01.913Z,5.20
2022-08-28T21:47:30.665Z,5.00
2022-08-28T21:49:59.125Z,6.20
2022-08-28T21:52:31.003Z,6.70
2022-08-28T21:55:02.500Z,13.70
2022-08-28T21:57:31.186Z,6.70
2022-08-28T21:59:59.761Z,7.10
2022-08-28T22:02:28.667Z,6.90
2022-08-28T22:04:56.716Z,11.30
2022-08-28T22:07:25.608Z,6.60
2022-08-28T22:09:53.774Z,6.60
2022-08-28T22:12:21.922Z,6.90
2022-08-28T22:14:50.025Z,7.00
2022-08-28T22:17:18.196Z,6.40
2022-08-28T22:19:46.920Z,6.70
2022-08-28T22:22:35.253Z,6.90
2022-08-28T22:25:04.821Z,6.10
2022-08-28T22:27:33.212Z,6.80
2022-08-28T22:30:01.281Z,7.10
2022-08-28T22:32:29.354Z,7.40
2022-08-28T22:34:57.735Z,6.90
2022-08-28T22:37:26.026Z,9.60
2022-08-28T22:39:54.267Z,7.70
2022-08-28T22:42:23.154Z,9.00
2022-08-28T22:44:51.342Z,7.80
2022-08-28T22:47:19.519Z,9.80
2022-08-28T22:49:47.894Z,9.80
2022-08-28T22:52:16.858Z,8.60
2022-08-28T22:54:47.178Z,8.70
2022-08-28T22:57:21.101Z,11.00
2022-08-28T22:59:49.569Z,9.60
2022-08-28T23:02:19.619Z,10.90
2022-08-28T23:04:51.140Z,10.20
2022-08-28T23:07:20.399Z,9.90
2022-08-28T23:09:48.556Z,12.30
2022-08-28T23:12:16.925Z,10.20
2022-08-28T23:14:48.429Z,12.60
2022-08-28T23:17:18.918Z,12.10
2022-08-28T23:19:48.337Z,10.30
2022-08-28T23:22:17.922Z,10.40
2022-08-28T23:24:47.087Z,11.00
2022-08-28T23:27:35.311Z,11.20
2022-08-28T23:30:05.670Z,11.30
2022-08-28T23:32:34.166Z,11.30
2022-08-28T23:35:02.299Z,11.40
2022-08-28T23:37:37.023Z,11.60
2022-08-28T23:40:09.807Z,11.90
2022-08-28T23:42:38.415Z,12.20
2022-08-28T23:45:07.901Z,12.40
2022-08-28T23:47:40.283Z,11.90
2022-08-28T23:50:21.263Z,12.00
2022-08-28T23:52:56.315Z,12.20
2022-08-28T23:55:26.990Z,12.50
2022-08-28T23:57:56.023Z,13.00
